createdAt,value
2019-03-06T00:00:42.872Z,4.60
2019-03-06T00:03:11.427Z,4.33
2019-03-06T00:05:40.221Z,3.50
2019-03-06T00:08:08.752Z,5.80
2019-03-06T00:10:37.243Z,14.63
2019-03-06T00:13:05.741Z,25.83
2019-03-06T00:15:34.415Z,49.40
2019-03-06T00:18:03.082Z,43.00
2019-03-06T00:20:31.610Z,36.00
2019-03-06T00:23:02.057Z,78.83
2019-03-06T00:25:30.559Z,12.87
2019-03-06T00:27:59.156Z,5.73
2019-03-06T00:30:28.076Z,4.17
2019-03-06T00:32:56.675Z,53.37
2019-03-06T00:35:29.813Z,133.40
2019-03-06T00:37:58.378Z,85.27
2019-03-06T00:40:31.447Z,5.07
2019-03-06T00:43:00.519Z,5.33
2019-03-06T00:45:29.669Z,11.63
2019-03-06T00:47:58.380Z,71.13
2019-03-06T00:50:26.965Z,6.93
2019-03-06T00:52:55.588Z,69.17
2019-03-06T00:55:24.178Z,105.10
2019-03-06T00:57:52.758Z,49.93
2019-03-06T01:00:25.069Z,136.13
2019-03-06T01:02:53.725Z,101.83
2019-03-06T01:05:23.122Z,87.20
2019-03-06T01:07:51.877Z,78.93
2019-03-06T01:10:20.460Z,79.20
2019-03-06T01:12:49.088Z,80.27
2019-03-06T01:15:18.442Z,77.83
2019-03-06T01:17:46.850Z,78.17
2019-03-06T01:20:15.624Z,190.63
2019-03-06T01:22:44.270Z,162.60
2019-03-06T01:25:15.102Z,81.97
2019-03-06T01:27:44.332Z,7.60
2019-03-06T01:30:21.295Z,6.93
2019-03-06T01:32:54.314Z,5.07
2019-03-06T01:35:27.465Z,7.63
2019-03-06T01:38:03.897Z,6.23
2019-03-06T01:40:50.449Z,6.43
2019-03-06T01:43:29.334Z,6.60
2019-03-06T01:45:58.282Z,6.53
2019-03-06T01:48:26.999Z,5.17
2019-03-06T01:50:55.760Z,6.70
2019-03-06T01:53:24.397Z,6.50
2019-03-06T01:55:53.045Z,7.83
2019-03-06T01:58:22.031Z,7.10
2019-03-06T02:00:50.664Z,7.57
2019-03-06T02:03:19.308Z,6.23
2019-03-06T02:05:48.000Z,8.93
2019-03-06T02:08:16.710Z,6.67
2019-03-06T02:10:45.420Z,6.97
2019-03-06T02:13:14.236Z,5.83
2019-03-06T02:15:42.940Z,7.80
2019-03-06T02:18:11.655Z,7.13
2019-03-06T02:20:40.412Z,7.30
2019-03-06T02:23:09.126Z,6.47
2019-03-06T02:25:37.703Z,7.93
2019-03-06T02:28:06.321Z,8.40
2019-03-06T02:30:34.975Z,6.93
2019-03-06T02:33:03.698Z,6.70
2019-03-06T02:35:32.458Z,7.13
2019-03-06T02:38:01.035Z,6.60
2019-03-06T02:40:30.153Z,7.67
2019-03-06T02:42:58.898Z,6.90
2019-03-06T02:45:27.548Z,6.97
2019-03-06T02:47:56.135Z,6.70
2019-03-06T02:50:25.082Z,8.43
2019-03-06T02:52:54.453Z,8.23
2019-03-06T02:55:23.074Z,6.90
2019-03-06T02:57:59.277Z,5.73
2019-03-06T03:00:29.574Z,7.40
2019-03-06T03:02:59.811Z,6.03
2019-03-06T03:05:30.246Z,6.90
2019-03-06T03:08:00.382Z,7.57
2019-03-06T03:10:29.156Z,6.90
2019-03-06T03:12:57.903Z,7.33
2019-03-06T03:15:26.612Z,7.30
2019-03-06T03:17:55.268Z,8.30
2019-03-06T03:20:23.940Z,7.80
2019-03-06T03:22:52.513Z,7.63
2019-03-06T03:25:21.219Z,8.20
2019-03-06T03:27:49.990Z,9.03
2019-03-06T03:30:18.653Z,7.90
2019-03-06T03:32:47.818Z,8.07
2019-03-06T03:35:16.519Z,6.63
2019-03-06T03:37:45.176Z,7.97
2019-03-06T03:40:15.762Z,7.67
2019-03-06T03:42:44.513Z,7.60
2019-03-06T03:45:17.186Z,7.10
2019-03-06T03:47:45.834Z,6.97
2019-03-06T03:50:14.464Z,7.10
2019-03-06T03:52:43.403Z,8.27
2019-03-06T03:55:18.443Z,8.10
2019-03-06T03:57:47.037Z,6.27
2019-03-06T04:00:20.425Z,7.53
2019-03-06T04:03:08.711Z,8.03
2019-03-06T04:05:37.284Z,6.23
2019-03-06T04:08:06.006Z,7.13
2019-03-06T04:10:34.683Z,6.73
2019-03-06T04:13:03.469Z,8.03
2019-03-06T04:15:32.270Z,6.17
2019-03-06T04:18:01.555Z,6.27
2019-03-06T04:20:30.210Z,7.63
2019-03-06T04:22:58.761Z,7.90
2019-03-06T04:25:27.489Z,7.33
2019-03-06T04:27:56.090Z,7.90
2019-03-06T04:30:24.618Z,8.30
2019-03-06T04:32:53.261Z,7.83
2019-03-06T04:35:21.791Z,6.77
2019-03-06T04:37:50.393Z,8.27
2019-03-06T04:40:19.350Z,7.77
2019-03-06T04:42:48.052Z,7.53
2019-03-06T04:45:17.426Z,9.70
2019-03-06T04:47:46.198Z,8.03
2019-03-06T04:50:15.385Z,9.63
2019-03-06T04:52:44.333Z,7.37
2019-03-06T04:55:14.877Z,9.00
2019-03-06T04:57:43.485Z,8.30
2019-03-06T05:00:23.791Z,7.53
2019-03-06T05:02:52.803Z,9.87
2019-03-06T05:05:21.409Z,8.77
2019-03-06T05:07:50.482Z,7.90
2019-03-06T05:10:19.075Z,7.90
2019-03-06T05:12:47.680Z,10.10
2019-03-06T05:15:17.629Z,8.27
2019-03-06T05:17:57.885Z,7.80
2019-03-06T05:20:26.581Z,9.50
2019-03-06T05:22:55.249Z,7.37
2019-03-06T05:25:23.966Z,9.33
2019-03-06T05:27:52.553Z,8.00
2019-03-06T05:30:22.776Z,8.10
2019-03-06T05:32:54.849Z,6.20
2019-03-06T05:35:32.615Z,11.00
2019-03-06T05:38:07.163Z,8.07
2019-03-06T05:40:35.809Z,8.33
2019-03-06T05:43:04.522Z,8.90
2019-03-06T05:45:33.099Z,9.40
2019-03-06T05:48:01.937Z,7.33
2019-03-06T05:50:30.597Z,8.90
2019-03-06T05:52:59.286Z,9.60
2019-03-06T05:55:28.012Z,8.93
2019-03-06T05:57:56.612Z,6.90
2019-03-06T06:00:31.912Z,8.80
2019-03-06T06:03:00.529Z,10.70
2019-03-06T06:05:29.172Z,7.80
2019-03-06T06:07:57.917Z,12.37
2019-03-06T06:10:26.566Z,10.43
2019-03-06T06:12:55.157Z,9.57
2019-03-06T06:15:23.859Z,12.10
2019-03-06T06:17:52.463Z,11.67
2019-03-06T06:20:21.138Z,14.10
2019-03-06T06:22:54.512Z,14.00
2019-03-06T06:25:23.208Z,13.53
2019-03-06T06:27:51.787Z,13.33
2019-03-06T06:30:22.063Z,13.17
2019-03-06T06:32:50.823Z,10.10
2019-03-06T06:35:19.416Z,7.73
2019-03-06T06:37:48.074Z,13.37
2019-03-06T06:40:16.682Z,12.30
2019-03-06T06:42:45.265Z,12.33
2019-03-06T06:45:16.433Z,11.07
2019-03-06T06:48:10.151Z,13.47
2019-03-06T06:51:01.544Z,10.23
2019-03-06T06:53:48.594Z,13.00
2019-03-06T06:56:50.081Z,10.77
2019-03-06T06:59:27.971Z,11.10
2019-03-06T07:02:13.151Z,12.97
2019-03-06T07:05:21.903Z,12.67
2019-03-06T07:08:08.592Z,10.33
2019-03-06T07:10:38.851Z,12.20
2019-03-06T07:13:09.097Z,12.40
2019-03-06T07:15:39.308Z,11.17
2019-03-06T07:18:09.566Z,12.33
2019-03-06T07:20:42.706Z,10.47
2019-03-06T07:23:18.913Z,10.93
2019-03-06T07:25:52.186Z,10.13
2019-03-06T07:28:28.153Z,10.97
2019-03-06T07:30:58.581Z,10.93
2019-03-06T07:33:28.826Z,12.33
2019-03-06T07:35:59.187Z,12.57
2019-03-06T07:38:28.102Z,11.73
2019-03-06T07:41:14.801Z,12.73
2019-03-06T07:43:47.839Z,9.47
2019-03-06T07:46:35.185Z,11.80
2019-03-06T07:49:21.902Z,10.20
2019-03-06T07:51:55.418Z,12.47
2019-03-06T07:54:31.498Z,10.57
2019-03-06T07:57:07.549Z,12.27
2019-03-06T07:59:36.284Z,10.33
2019-03-06T08:02:08.099Z,10.47
2019-03-06T08:04:36.600Z,12.17
2019-03-06T08:07:15.192Z,11.50
2019-03-06T08:09:43.719Z,13.83
2019-03-06T08:12:26.347Z,12.17
2019-03-06T08:15:03.428Z,12.03
2019-03-06T08:17:39.428Z,12.67
2019-03-06T08:20:09.669Z,12.63
2019-03-06T08:22:39.918Z,11.80
2019-03-06T08:25:10.203Z,89.87
2019-03-06T08:27:38.882Z,115.97
2019-03-06T08:30:11.021Z,336.67
2019-03-06T08:32:39.665Z,87.50
2019-03-06T08:35:10.492Z,67.43
2019-03-06T08:37:39.082Z,52.40
2019-03-06T08:40:10.062Z,51.63
2019-03-06T08:42:38.653Z,54.93
2019-03-06T08:45:13.992Z,52.17
2019-03-06T08:48:00.834Z,68.77
2019-03-06T08:50:37.151Z,79.60
2019-03-06T08:53:10.435Z,86.10
2019-03-06T08:55:40.696Z,87.33
2019-03-06T08:58:16.706Z,77.80
2019-03-06T09:01:03.453Z,69.00
2019-03-06T09:03:48.838Z,85.07
2019-03-06T09:06:30.914Z,71.50
2019-03-06T09:09:07.172Z,31.50
2019-03-06T09:11:39.324Z,16.63
2019-03-06T09:14:12.202Z,13.03
2019-03-06T09:16:58.460Z,15.00
2019-03-06T09:19:37.561Z,11.57
2019-03-06T09:22:13.560Z,12.37
2019-03-06T09:24:46.604Z,17.07
2019-03-06T09:27:19.684Z,99.30
2019-03-06T09:29:58.944Z,96.63
2019-03-06T09:32:29.105Z,91.43
2019-03-06T09:35:02.108Z,93.10
2019-03-06T09:37:50.828Z,77.97
2019-03-06T09:40:36.168Z,73.83
2019-03-06T09:43:06.440Z,83.97
2019-03-06T09:45:39.450Z,97.50
2019-03-06T09:48:18.504Z,93.83
2019-03-06T09:51:03.520Z,99.00
2019-03-06T09:53:33.985Z,92.30
2019-03-06T09:56:04.198Z,96.53
2019-03-06T09:58:34.443Z,101.47
2019-03-06T10:01:22.920Z,87.07
2019-03-06T10:04:09.430Z,100.77
2019-03-06T10:06:40.025Z,82.60
2019-03-06T10:09:16.746Z,80.77
2019-03-06T10:12:03.601Z,89.60
2019-03-06T10:14:33.860Z,75.63
2019-03-06T10:17:13.413Z,62.07
2019-03-06T10:19:43.670Z,72.27
2019-03-06T10:22:12.336Z,65.30
2019-03-06T10:24:40.959Z,55.97
2019-03-06T10:27:09.654Z,65.17
2019-03-06T10:29:38.271Z,44.43
2019-03-06T10:32:06.922Z,41.43
2019-03-06T10:34:35.713Z,70.07
2019-03-06T10:39:51.705Z,68.13
2019-03-06T10:42:20.272Z,61.60
2019-03-06T10:44:49.415Z,69.07
2019-03-06T10:47:18.261Z,121.33
2019-03-06T10:49:46.918Z,185.40
2019-03-06T10:52:15.546Z,94.87
2019-03-06T10:54:45.015Z,100.33
2019-03-06T10:57:13.606Z,113.83
2019-03-06T10:59:42.588Z,109.83
2019-03-06T11:02:11.011Z,103.27
2019-03-06T11:04:44.314Z,101.87
2019-03-06T11:07:12.894Z,98.70
2019-03-06T11:09:41.495Z,103.20
2019-03-06T11:12:10.097Z,101.63
2019-03-06T11:14:39.013Z,102.90
2019-03-06T11:17:07.716Z,100.83
2019-03-06T11:19:36.678Z,132.33
2019-03-06T11:22:05.403Z,122.37
2019-03-06T11:24:34.034Z,106.70
2019-03-06T11:27:05.433Z,103.93
2019-03-06T11:29:34.012Z,105.43
2019-03-06T11:32:02.639Z,105.70
2019-03-06T11:34:31.141Z,103.40
2019-03-06T11:36:59.882Z,110.67
2019-03-06T11:39:28.515Z,121.17
2019-03-06T11:41:57.092Z,114.40
2019-03-06T11:44:25.665Z,111.73
2019-03-06T11:46:54.297Z,110.40
2019-03-06T11:49:22.934Z,98.60
2019-03-06T11:51:51.801Z,98.37
2019-03-06T11:54:20.415Z,99.43
2019-03-06T11:56:48.996Z,100.63
2019-03-06T11:59:17.566Z,101.07
2019-03-06T12:01:48.191Z,101.90
2019-03-06T12:04:16.445Z,100.87
2019-03-06T12:06:45.077Z,124.80
2019-03-06T12:09:27.733Z,113.40
2019-03-06T12:11:56.467Z,116.80
2019-03-06T12:14:25.526Z,107.37
2019-03-06T12:16:54.337Z,113.67
2019-03-06T12:19:23.244Z,112.20
2019-03-06T12:21:52.992Z,99.83
2019-03-06T12:24:22.056Z,101.00
2019-03-06T12:26:50.617Z,85.67
2019-03-06T12:29:19.222Z,12.87
2019-03-06T12:31:47.895Z,12.10
2019-03-06T12:34:16.405Z,13.57
2019-03-06T12:36:45.031Z,13.93
2019-03-06T12:39:13.723Z,13.00
2019-03-06T12:41:43.859Z,15.17
2019-03-06T12:44:12.629Z,14.83
2019-03-06T12:46:41.607Z,15.83
2019-03-06T12:49:10.267Z,12.37
2019-03-06T12:51:38.899Z,13.90
2019-03-06T12:54:07.613Z,13.27
2019-03-06T12:56:36.298Z,34.73
2019-03-06T12:59:05.154Z,100.03
2019-03-06T13:01:33.844Z,97.07
2019-03-06T13:04:02.687Z,98.30
2019-03-06T13:06:31.299Z,71.60
2019-03-06T13:09:00.085Z,71.40
2019-03-06T13:11:29.186Z,103.90
2019-03-06T13:13:57.760Z,101.57
2019-03-06T13:16:26.374Z,104.27
2019-03-06T13:18:55.026Z,98.93
2019-03-06T13:21:23.677Z,99.27
2019-03-06T13:23:52.373Z,100.73
2019-03-06T13:26:21.024Z,102.77
2019-03-06T13:28:57.122Z,96.33
2019-03-06T13:31:20.337Z,89.60
2019-03-06T13:33:51.021Z,95.53
2019-03-06T13:36:19.597Z,97.30
2019-03-06T13:38:54.752Z,97.10
2019-03-06T13:41:18.566Z,94.80
2019-03-06T13:43:47.217Z,95.57
2019-03-06T13:46:15.836Z,95.97
2019-03-06T13:48:44.764Z,95.97
2019-03-06T13:51:13.428Z,95.37
2019-03-06T13:53:42.034Z,99.03
2019-03-06T13:56:10.703Z,95.80
2019-03-06T13:58:39.680Z,96.23
2019-03-06T14:01:08.695Z,96.30
2019-03-06T14:03:37.360Z,97.53
2019-03-06T14:06:06.020Z,91.73
2019-03-06T14:08:34.743Z,98.97
2019-03-06T14:11:03.358Z,95.47
2019-03-06T14:13:31.996Z,98.90
2019-03-06T14:16:00.709Z,103.63
2019-03-06T14:18:29.304Z,98.67
2019-03-06T14:20:57.943Z,102.67
2019-03-06T14:23:34.825Z,103.70
2019-03-06T14:25:57.078Z,101.93
2019-03-06T14:28:25.683Z,102.13
2019-03-06T14:30:54.375Z,99.80
2019-03-06T14:33:24.031Z,108.87
2019-03-06T14:35:52.878Z,113.10
2019-03-06T14:38:22.980Z,115.77
2019-03-06T14:40:51.868Z,99.60
2019-03-06T14:43:27.722Z,111.77
2019-03-06T14:45:56.503Z,110.73
2019-03-06T14:48:25.451Z,96.33
2019-03-06T14:50:54.131Z,110.73
2019-03-06T14:53:22.782Z,127.70
2019-03-06T14:55:51.417Z,118.70
2019-03-06T14:58:20.062Z,136.30
2019-03-06T15:00:48.610Z,119.00
2019-03-06T15:03:17.706Z,156.40
2019-03-06T15:05:47.293Z,98.07
2019-03-06T15:08:16.218Z,95.93
2019-03-06T15:10:44.877Z,94.27
2019-03-06T15:13:13.507Z,84.40
2019-03-06T15:15:42.125Z,57.73
2019-03-06T15:18:11.164Z,68.93
2019-03-06T15:20:40.008Z,92.67
2019-03-06T15:23:08.649Z,100.90
2019-03-06T15:25:37.223Z,95.53
2019-03-06T15:28:06.057Z,99.83
2019-03-06T15:30:35.091Z,97.73
2019-03-06T15:33:03.966Z,94.17
2019-03-06T15:35:32.632Z,94.90
2019-03-06T15:38:01.259Z,93.90
2019-03-06T15:40:34.671Z,92.27
2019-03-06T15:43:03.376Z,92.67
2019-03-06T15:45:33.589Z,92.43
2019-03-06T15:48:02.269Z,91.67
2019-03-06T15:50:30.879Z,93.70
2019-03-06T15:52:59.448Z,92.90
2019-03-06T15:55:28.639Z,78.40
2019-03-06T15:57:57.252Z,89.63
2019-03-06T16:00:45.724Z,93.30
2019-03-06T16:03:13.639Z,93.20
2019-03-06T16:05:42.203Z,93.73
2019-03-06T16:08:11.895Z,89.60
2019-03-06T16:10:41.414Z,91.63
2019-03-06T16:13:10.006Z,93.13
2019-03-06T16:15:38.615Z,92.23
2019-03-06T16:18:08.923Z,92.70
2019-03-06T16:20:37.490Z,92.57
2019-03-06T16:23:06.452Z,87.63
2019-03-06T16:25:37.944Z,84.57
2019-03-06T16:28:05.361Z,89.93
2019-03-06T16:30:33.895Z,89.73
2019-03-06T16:33:02.601Z,78.60
2019-03-06T16:35:31.259Z,88.97
2019-03-06T16:37:59.938Z,82.83
2019-03-06T16:40:30.584Z,87.17
2019-03-06T16:42:59.398Z,80.27
2019-03-06T16:45:28.721Z,85.03
2019-03-06T16:47:57.403Z,91.63
2019-03-06T16:50:26.086Z,87.37
2019-03-06T16:52:54.705Z,93.77
2019-03-06T16:55:24.914Z,89.80
2019-03-06T16:57:53.485Z,82.13
2019-03-06T17:00:24.502Z,66.00
2019-03-06T17:02:53.063Z,89.93
2019-03-06T17:05:21.840Z,92.97
2019-03-06T17:07:50.614Z,87.77
2019-03-06T17:10:20.790Z,78.73
2019-03-06T17:12:49.450Z,82.20
2019-03-06T17:15:18.533Z,73.37
2019-03-06T17:17:47.310Z,77.67
2019-03-06T17:20:18.517Z,90.17
2019-03-06T17:22:47.688Z,89.60
2019-03-06T17:25:16.353Z,89.37
2019-03-06T17:27:45.449Z,91.53
2019-03-06T17:30:17.141Z,90.00
2019-03-06T17:32:52.090Z,92.53
2019-03-06T17:35:20.554Z,94.07
2019-03-06T17:37:49.211Z,97.03
2019-03-06T17:40:17.887Z,94.67
2019-03-06T17:42:46.458Z,95.47
2019-03-06T17:45:15.464Z,96.80
2019-03-06T17:47:43.839Z,96.33
2019-03-06T17:50:13.076Z,91.57
2019-03-06T17:52:41.482Z,91.67
2019-03-06T17:55:11.272Z,93.13
2019-03-06T17:57:39.933Z,91.47
2019-03-06T18:00:16.716Z,91.30
2019-03-06T18:02:39.816Z,93.20
2019-03-06T18:05:08.826Z,95.17
2019-03-06T18:07:38.452Z,93.33
2019-03-06T18:10:18.726Z,92.33
2019-03-06T18:12:47.045Z,93.23
2019-03-06T18:15:16.908Z,94.03
2019-03-06T18:17:45.772Z,92.93
2019-03-06T18:20:15.822Z,90.27
2019-03-06T18:22:44.466Z,90.10
2019-03-06T18:25:23.670Z,93.53
2019-03-06T18:27:53.888Z,89.83
2019-03-06T18:30:24.158Z,92.07
2019-03-06T18:32:52.759Z,92.47
2019-03-06T18:35:22.531Z,90.07
2019-03-06T18:37:51.103Z,91.90
2019-03-06T18:40:24.293Z,91.47
2019-03-06T18:42:54.833Z,91.17
2019-03-06T18:45:23.214Z,93.17
2019-03-06T18:47:53.379Z,94.20
2019-03-06T18:50:22.789Z,97.27
2019-03-06T18:52:51.263Z,94.40
2019-03-06T18:55:19.920Z,98.10
2019-03-06T18:57:48.571Z,92.80
2019-03-06T19:00:24.987Z,92.00
2019-03-06T19:02:53.659Z,93.80
2019-03-06T19:05:21.943Z,93.60
2019-03-06T19:07:50.403Z,93.60
2019-03-06T19:10:19.146Z,92.37
2019-03-06T19:12:47.778Z,95.97
2019-03-06T19:15:16.983Z,93.30
2019-03-06T19:17:45.248Z,92.53
2019-03-06T19:20:13.712Z,95.53
2019-03-06T19:22:42.391Z,94.50
2019-03-06T19:25:11.447Z,94.67
2019-03-06T19:27:39.952Z,92.53
2019-03-06T19:30:10.201Z,93.00
2019-03-06T19:32:38.849Z,91.10
2019-03-06T19:35:07.577Z,95.23
2019-03-06T19:37:39.491Z,91.63
2019-03-06T19:40:11.415Z,91.80
2019-03-06T19:42:39.998Z,92.17
2019-03-06T19:45:09.890Z,89.30
2019-03-06T19:47:38.144Z,90.83
2019-03-06T19:50:09.923Z,92.40
2019-03-06T19:52:38.575Z,93.27
2019-03-06T19:55:11.222Z,92.60
2019-03-06T19:58:03.121Z,90.03
2019-03-06T20:00:31.799Z,94.93
2019-03-06T20:03:01.450Z,97.90
2019-03-06T20:05:34.642Z,92.47
2019-03-06T20:08:06.325Z,90.03
2019-03-06T20:10:34.954Z,95.20
2019-03-06T20:13:05.266Z,96.43
2019-03-06T20:15:35.504Z,92.57
2019-03-06T20:18:03.845Z,101.03
2019-03-06T20:20:32.544Z,92.87
2019-03-06T20:23:01.380Z,97.57
2019-03-06T20:25:30.109Z,92.87
2019-03-06T20:27:58.769Z,94.83
2019-03-06T20:30:28.060Z,98.03
2019-03-06T20:32:57.200Z,93.30
2019-03-06T20:35:26.462Z,89.90
2019-03-06T20:37:55.521Z,93.00
2019-03-06T20:40:24.701Z,92.10
2019-03-06T20:42:53.405Z,93.30
2019-03-06T20:45:21.967Z,95.37
2019-03-06T20:47:50.305Z,92.13
2019-03-06T20:50:20.164Z,92.20
2019-03-06T20:52:50.246Z,89.83
2019-03-06T20:55:18.717Z,90.83
2019-03-06T20:57:48.980Z,89.87
2019-03-06T21:00:25.924Z,90.33
2019-03-06T21:02:54.540Z,90.53
2019-03-06T21:05:25.348Z,92.33
2019-03-06T21:07:53.643Z,90.13
2019-03-06T21:10:22.372Z,95.07
2019-03-06T21:12:51.247Z,91.37
2019-03-06T21:15:22.494Z,89.23
2019-03-06T21:17:51.120Z,90.17
2019-03-06T21:20:19.983Z,91.30
2019-03-06T21:22:48.627Z,90.77
2019-03-06T21:25:17.714Z,89.20
2019-03-06T21:27:46.369Z,89.63
2019-03-06T21:30:37.660Z,91.27
2019-03-06T21:33:06.365Z,91.27
2019-03-06T21:35:34.669Z,90.63
2019-03-06T21:38:03.363Z,89.97
2019-03-06T21:40:33.199Z,91.27
2019-03-06T21:43:01.532Z,91.73
2019-03-06T21:45:30.153Z,87.77
2019-03-06T21:47:59.698Z,91.63
2019-03-06T21:50:30.290Z,90.27
2019-03-06T21:52:59.299Z,87.67
2019-03-06T21:55:28.229Z,89.17
2019-03-06T21:57:56.873Z,88.17
2019-03-06T22:00:25.575Z,87.23
2019-03-06T22:02:54.162Z,89.03
2019-03-06T22:05:22.669Z,89.23
2019-03-06T22:07:51.591Z,89.23
2019-03-06T22:10:20.236Z,89.23
2019-03-06T22:12:48.882Z,87.37
2019-03-06T22:15:19.065Z,88.83
2019-03-06T22:17:47.397Z,87.53
2019-03-06T22:20:16.858Z,90.27
2019-03-06T22:22:45.557Z,89.43
2019-03-06T22:25:14.574Z,89.33
2019-03-06T22:27:43.149Z,89.47
2019-03-06T22:30:14.281Z,87.10
2019-03-06T22:32:42.940Z,90.33
2019-03-06T22:35:11.500Z,91.07
2019-03-06T22:37:40.178Z,91.97
2019-03-06T22:40:16.593Z,92.13
2019-03-06T22:42:45.275Z,89.27
2019-03-06T22:45:14.402Z,91.53
2019-03-06T22:47:42.904Z,89.67
2019-03-06T22:50:17.606Z,91.27
2019-03-06T22:52:46.183Z,90.90
2019-03-06T22:55:17.967Z,89.30
2019-03-06T22:57:46.476Z,94.60
2019-03-06T23:00:30.508Z,91.30
2019-03-06T23:02:59.210Z,89.23
2019-03-06T23:05:30.134Z,87.07
2019-03-06T23:07:58.797Z,89.30
2019-03-06T23:10:27.464Z,87.73
2019-03-06T23:12:56.028Z,88.43
2019-03-06T23:15:24.531Z,90.87
2019-03-06T23:17:53.139Z,87.00
2019-03-06T23:20:21.399Z,90.37
2019-03-06T23:22:50.350Z,88.10
2019-03-06T23:25:18.896Z,88.03
2019-03-06T23:27:47.396Z,90.10
2019-03-06T23:30:16.642Z,90.10
2019-03-06T23:32:45.509Z,92.37
2019-03-06T23:35:14.568Z,89.50
2019-03-06T23:37:43.190Z,90.00
2019-03-06T23:40:11.490Z,88.53
2019-03-06T23:42:40.904Z,88.60
2019-03-06T23:45:11.836Z,87.93
2019-03-06T23:47:40.414Z,87.87
2019-03-06T23:50:11.208Z,87.90
2019-03-06T23:52:57.735Z,87.77
2019-03-06T23:55:27.963Z,87.13
2019-03-06T23:57:56.520Z,87.97
